Garland, AL

10:39 PM CDT on September 02, 2014 (GMT -0500)
Red Level | Change Station
CLOSE
Current Station
Personal Weather Station
Location: Red Level, AL
Elevation: 345 ft
Nearby Weather Stations

Elev 345 ft 31.37 °N, 86.62 °W | Updated 6 minutes ago

Clear
Clear
75.0 °F
Feels Like 73 °F
N
0.0
Wind Variable Wind from West
Gusts 0.0 mph

Today
High -- | Low -- °F
--% Chance of Precip.
Yesterday
High -- | Low -- °F
Precip. -- in
6:23 AM 7:09 PM
First Quarter, 58% visible
Pressure 30.03 in
Visibility 10.0 miles
Clouds Clear
Heat Index 73 °F
Dew Point 73 °F
Humidity 94%
Rainfall 0.00 in
Snow Depth Not available.
UV 0 out of 12
Pollen 9.20 out of 12
Air Quality Not available.
Flu Activity Not available.
METAR KGZH 030153Z AUTO 00000KT 10SM CLR 26/23 A3004 RMK AO2 SLP167 T02560233

More Conditions Fewer Conditions

Pressure 30.03 in
Visibility 10.0 miles
Clouds Clear
Heat Index 73 °F
Dew Point 73 °F
Humidity 94%
Rainfall 0.00 in
Snow Depth Not available.
UV 0 out of 12
Pollen 9.20 out of 12
Air Quality Not available.
Flu Activity Not available.
METAR KGZH 030153Z AUTO 00000KT 10SM CLR 26/23 A3004 RMK AO2 SLP167 T02560233

More Conditions Fewer Conditions

10-Day Weather Forecast

Almanac

Astronomy

Sep. 02, 2014 Rise Set
Actual Time 6:23 AM CDT 7:09 PM CDT
Civil Twilight 5:58 AM CDT 7:34 PM CDT
Nautical Twilight 5:29 AM CDT 8:03 PM CDT
Astronomical Twilight 4:59 AM CDT 8:32 PM CDT
Moon 1:40 PM CDT (9/2) No Moon Set
Length of Visible Light 13h 35m
Length of Day
12h 46m
Tomorrow will be 1m 51s shorter.
First Quarter, 58% of the Moon is Illuminated
Today
First Quarter
Sep 8
Full
Sep 15
Last Quarter
Sep 24
New
Oct 1
First Quarter

Today's Extremes

State Highs State Lows

Community

WunderPhotos

Upload Photos

1,749,867 photos uploaded!

WunderBlogs® & News

Nearby

Snow Depth

Station Depth Elevation
No new snow has been reported.

Earthquake Activity

City Distance Mag. Time & Date
No recent earthquake activity has been reported nearby.
Minimum magnitude displayed is 2.5.

Coastal Water Temperatures

Place Temperature
No Stations Reporting

Nearby Weather Stations